Time;durP1;ratioP1;P1;durP2;ratioP2;P2;SDS_P1;SDS_P2;PMS_P1;PMS_P2;Temp;Humidity;BMP_temperature;BMP_pressure;BME280_temperature;BME280_humidity;BME280_pressure;Samples;Min_cycle;Max_cycle;Signal;HPM_P1;HPM_P2
2022/04/23 00:02:20;;;;;;;15.38;11.15;;;12.00;93.30;;;;;;5003382;28;20091;-43
2022/04/23 00:04:47;;;;;;;13.93;10.43;;;12.00;93.50;;;;;;5002615;28;20382;-44
2022/04/23 00:07:15;;;;;;;16.48;11.18;;;12.00;93.50;;;;;;5011842;28;20492;-44
2022/04/23 00:09:41;;;;;;;16.42;10.77;;;12.00;93.80;;;;;;5005208;28;20046;-44
2022/04/23 00:12:08;;;;;;;13.07;10.68;;;11.90;93.70;;;;;;4998588;28;20581;-44
2022/04/23 00:14:35;;;;;;;14.52;10.52;;;11.90;93.80;;;;;;5008622;28;20046;-44
2022/04/23 00:17:02;;;;;;;13.88;10.88;;;11.90;93.80;;;;;;5008325;28;20081;-44
2022/04/23 00:19:29;;;;;;;15.93;10.98;;;11.90;94.10;;;;;;5005444;28;20052;-44
2022/04/23 00:21:55;;;;;;;14.98;11.30;;;11.80;94.10;;;;;;4999342;28;20389;-44
2022/04/23 00:24:23;;;;;;;17.45;11.13;;;11.80;94.20;;;;;;5006612;28;20037;-44
2022/04/23 00:26:50;;;;;;;15.20;11.95;;;11.80;94.30;;;;;;5009882;28;20045;-44
2022/04/23 00:29:17;;;;;;;18.02;11.88;;;11.80;94.60;;;;;;5001773;28;20045;-44
2022/04/23 00:31:43;;;;;;;19.10;12.80;;;11.80;94.70;;;;;;5002629;28;20069;-44
2022/04/23 00:34:10;;;;;;;16.92;11.60;;;11.70;94.80;;;;;;5014174;28;20085;-44
2022/04/23 00:36:37;;;;;;;15.70;12.52;;;11.70;95.00;;;;;;5004959;28;20042;-44
2022/04/23 00:39:05;;;;;;;15.57;11.48;;;11.70;95.00;;;;;;5012625;28;20046;-44
2022/04/23 00:41:46;;;;;;;16.58;11.75;;;11.70;94.90;;;;;;5009346;28;20038;-44
2022/04/23 00:44:13;;;;;;;15.07;11.63;;;11.60;95.10;;;;;;5006494;28;20077;-42
2022/04/23 00:46:40;;;;;;;16.13;11.43;;;11.60;95.00;;;;;;5002158;28;20052;-44
2022/04/23 00:49:06;;;;;;;15.95;12.20;;;11.60;95.10;;;;;;5007226;28;20486;-44
2022/04/23 00:51:33;;;;;;;16.70;13.07;;;11.60;95.30;;;;;;5007233;28;20070;-44
2022/04/23 00:54:01;;;;;;;17.10;12.18;;;11.50;95.50;;;;;;5016194;28;20046;-43
2022/04/23 00:56:27;;;;;;;16.52;12.27;;;11.50;95.50;;;;;;5006728;28;20454;-43
2022/04/23 00:58:56;;;;;;;20.45;12.23;;;11.50;95.60;;;;;;5007477;28;20124;-43
2022/04/23 01:01:23;;;;;;;19.02;13.00;;;11.50;95.60;;;;;;5003659;28;20101;-43
2022/04/23 01:03:50;;;;;;;16.70;12.65;;;11.40;95.90;;;;;;5005161;28;20139;-43
2022/04/23 01:06:17;;;;;;;17.23;12.43;;;11.30;96.20;;;;;;5027795;28;20046;-43
2022/04/23 01:08:43;;;;;;;17.27;12.55;;;11.30;96.20;;;;;;5008864;28;20050;-44
2022/04/23 01:11:10;;;;;;;17.25;13.00;;;11.30;96.20;;;;;;5004878;28;20056;-43
2022/04/23 01:13:37;;;;;;;17.15;12.93;;;11.30;96.40;;;;;;5013864;28;20046;-44
2022/04/23 01:16:07;;;;;;;17.23;13.70;;;11.20;96.20;;;;;;5012971;28;20052;-44
2022/04/23 01:18:34;;;;;;;18.60;13.98;;;11.20;96.80;;;;;;5016600;28;20042;-44
2022/04/23 01:21:02;;;;;;;18.95;13.25;;;11.20;97.00;;;;;;5011693;28;20060;-44
2022/04/23 01:23:30;;;;;;;16.50;13.13;;;11.20;96.90;;;;;;5006313;28;20052;-44
2022/04/23 01:25:57;;;;;;;21.20;14.50;;;11.20;96.80;;;;;;5010881;28;20041;-42
2022/04/23 01:28:24;;;;;;;19.35;14.30;;;11.10;97.00;;;;;;5004582;28;20485;-44
2022/04/23 01:30:51;;;;;;;20.08;14.52;;;11.10;97.00;;;;;;5014768;28;20488;-44
2022/04/23 01:33:18;;;;;;;22.20;16.08;;;11.10;97.30;;;;;;5007539;28;20045;-44
2022/04/23 01:35:45;;;;;;;19.95;15.98;;;11.10;97.40;;;;;;5019689;28;20500;-45
2022/04/23 01:38:13;;;;;;;19.00;13.90;;;11.00;97.40;;;;;;5001596;28;20486;-44
2022/04/23 01:40:40;;;;;;;18.23;13.70;;;11.00;97.60;;;;;;5006337;28;20093;-45
2022/04/23 01:43:07;;;;;;;20.95;13.75;;;11.00;97.70;;;;;;5011955;28;20052;-44
2022/04/23 01:45:34;;;;;;;17.67;13.18;;;11.00;97.70;;;;;;5009114;28;20046;-44
2022/04/23 01:48:00;;;;;;;19.50;13.55;;;11.00;97.90;;;;;;5007627;28;20160;-44
2022/04/23 01:50:27;;;;;;;16.52;12.20;;;10.90;97.90;;;;;;5004158;28;20047;-44
2022/04/23 01:52:54;;;;;;;20.40;15.23;;;10.90;98.10;;;;;;5010341;28;20044;-44
2022/04/23 01:55:22;;;;;;;19.95;13.75;;;10.90;98.20;;;;;;5002711;28;20490;-44
2022/04/23 01:57:48;;;;;;;16.90;13.10;;;10.90;98.60;;;;;;5002132;28;20052;-44
2022/04/23 02:00:15;;;;;;;18.55;12.68;;;10.80;98.40;;;;;;5007455;28;20041;-44
2022/04/23 02:02:42;;;;;;;17.85;12.40;;;10.80;98.30;;;;;;5011328;28;20056;-44
2022/04/23 02:05:09;;;;;;;16.88;11.10;;;10.80;98.40;;;;;;5007809;28;20128;-44
2022/04/23 02:07:37;;;;;;;17.00;12.85;;;10.80;98.60;;;;;;5009761;28;20042;-45
2022/04/23 02:10:04;;;;;;;20.38;12.57;;;10.80;98.80;;;;;;5010335;28;20037;-43
2022/04/23 02:12:33;;;;;;;14.82;11.15;;;10.80;99.00;;;;;;5011965;28;20046;-45
2022/04/23 02:15:00;;;;;;;17.45;11.32;;;10.80;98.80;;;;;;4999385;28;20038;-45
2022/04/23 02:17:33;;;;;;;17.10;12.32;;;10.70;98.90;;;;;;5010502;28;20049;-45
2022/04/23 02:20:03;;;;;;;16.80;11.68;;;10.70;99.60;;;;;;5012772;28;20054;-45
2022/04/23 02:22:30;;;;;;;19.40;11.38;;;10.60;99.40;;;;;;5005136;28;20062;-45
2022/04/23 02:24:57;;;;;;;19.67;11.25;;;10.70;99.50;;;;;;5011500;28;20417;-45
2022/04/23 02:27:24;;;;;;;15.00;10.75;;;10.70;99.60;;;;;;5009295;28;20045;-45
2022/04/23 02:29:52;;;;;;;18.33;10.95;;;10.60;99.80;;;;;;5001511;28;20528;-45
2022/04/23 02:32:18;;;;;;;15.75;11.98;;;10.60;99.80;;;;;;5012385;28;20052;-43
2022/04/23 02:34:45;;;;;;;16.10;11.65;;;10.60;99.90;;;;;;5007463;28;20096;-43
2022/04/23 02:37:12;;;;;;;18.85;11.60;;;10.60;99.90;;;;;;5010935;28;20037;-43
2022/04/23 02:39:39;;;;;;;16.90;11.23;;;10.60;99.90;;;;;;5001467;28;20058;-44
2022/04/23 02:42:07;;;;;;;16.17;10.98;;;10.60;99.90;;;;;;5007258;28;20133;-44
2022/04/23 02:44:35;;;;;;;16.88;10.95;;;10.60;99.90;;;;;;5010963;28;20054;-43
2022/04/23 02:47:04;;;;;;;18.60;11.82;;;10.50;99.90;;;;;;5009501;28;20041;-45
2022/04/23 02:49:31;;;;;;;17.65;11.55;;;10.50;99.90;;;;;;4999229;28;20046;-44
2022/04/23 02:51:57;;;;;;;20.70;12.52;;;10.50;99.90;;;;;;5006615;28;20050;-45
2022/04/23 02:54:24;;;;;;;14.68;11.00;;;10.60;99.90;;;;;;5006514;28;20045;-45
2022/04/23 02:56:53;;;;;;;15.43;11.85;;;10.50;99.90;;;;;;5001838;28;20042;-45
2022/04/23 02:59:19;;;;;;;15.20;11.50;;;10.50;99.90;;;;;;5004170;28;20474;-45
2022/04/23 03:01:46;;;;;;;19.45;11.75;;;10.50;99.90;;;;;;5000648;28;20090;-45
2022/04/23 03:04:16;;;;;;;16.20;11.48;;;10.40;99.90;;;;;;5009928;28;20501;-44
2022/04/23 03:06:47;;;;;;;18.70;11.68;;;10.40;99.90;;;;;;5008993;28;20042;-43
2022/04/23 03:09:14;;;;;;;16.98;11.13;;;10.50;99.90;;;;;;5005247;28;20572;-43
2022/04/23 03:11:41;;;;;;;15.65;11.10;;;10.40;99.90;;;;;;5009831;28;20046;-43
2022/04/23 03:14:07;;;;;;;16.90;12.00;;;10.40;99.90;;;;;;5007260;28;20064;-43
2022/04/23 03:16:34;;;;;;;19.20;12.40;;;10.40;99.90;;;;;;5006559;28;20050;-43
2022/04/23 03:19:01;;;;;;;15.68;11.40;;;10.40;99.90;;;;;;5023606;28;20042;-44
2022/04/23 03:21:29;;;;;;;22.58;11.68;;;10.40;99.90;;;;;;5007728;28;20046;-43
2022/04/23 03:23:55;;;;;;;21.48;12.18;;;10.30;99.90;;;;;;5004810;28;20049;-44
2022/04/23 03:26:22;;;;;;;17.27;12.48;;;10.30;99.90;;;;;;5005659;28;20038;-43
2022/04/23 03:28:49;;;;;;;18.75;12.52;;;10.30;99.90;;;;;;5002234;28;20044;-43
2022/04/23 03:31:15;;;;;;;16.45;12.38;;;10.20;99.90;;;;;;5010768;28;20363;-43
2022/04/23 03:33:42;;;;;;;20.20;12.40;;;10.20;99.90;;;;;;5011551;28;20038;-43
2022/04/23 03:36:09;;;;;;;17.10;11.07;;;10.20;99.90;;;;;;5008862;28;20041;-44
2022/04/23 03:38:37;;;;;;;17.33;11.52;;;10.20;99.90;;;;;;5007652;28;20095;-44
2022/04/23 03:41:04;;;;;;;19.48;11.85;;;10.20;99.90;;;;;;5008935;28;20073;-44
2022/04/23 03:43:32;;;;;;;18.20;11.65;;;10.10;99.90;;;;;;5000632;28;20112;-44
2022/04/23 03:45:59;;;;;;;17.65;11.70;;;10.10;99.90;;;;;;4995722;28;20034;-44
2022/04/23 03:48:25;;;;;;;18.00;12.45;;;10.10;99.90;;;;;;5000958;28;20038;-44
2022/04/23 03:50:53;;;;;;;17.55;11.80;;;10.10;99.90;;;;;;5007810;28;20364;-44
2022/04/23 03:53:19;;;;;;;16.10;11.73;;;10.00;99.90;;;;;;5004989;28;20046;-43
2022/04/23 03:55:47;;;;;;;15.88;11.98;;;10.00;99.90;;;;;;5010571;28;20076;-43
2022/04/23 03:58:14;;;;;;;19.48;12.38;;;10.00;99.90;;;;;;5004571;28;20488;-44
2022/04/23 04:00:41;;;;;;;17.25;11.98;;;10.00;99.90;;;;;;4997987;28;20050;-43
2022/04/23 04:03:07;;;;;;;19.20;11.65;;;9.90;99.90;;;;;;5001168;28;20065;-44
2022/04/23 04:05:35;;;;;;;15.25;11.20;;;9.90;99.90;;;;;;5007890;28;20042;-44
2022/04/23 04:08:01;;;;;;;15.57;11.38;;;9.90;99.90;;;;;;5009461;28;20080;-44
2022/04/23 04:10:28;;;;;;;13.75;10.52;;;9.90;99.90;;;;;;5009759;28;20046;-43
2022/04/23 04:12:56;;;;;;;23.58;11.38;;;9.90;99.90;;;;;;5013341;28;20057;-44
2022/04/23 04:15:23;;;;;;;17.77;11.85;;;9.80;99.90;;;;;;5004390;28;20085;-44
2022/04/23 04:17:51;;;;;;;16.70;11.23;;;9.80;99.90;;;;;;5013325;28;20140;-43
2022/04/23 04:20:18;;;;;;;14.93;10.70;;;9.80;99.90;;;;;;5010443;28;20136;-44
2022/04/23 04:22:45;;;;;;;16.45;11.80;;;9.80;99.90;;;;;;5014722;28;20052;-44
2022/04/23 04:25:13;;;;;;;16.20;11.77;;;9.80;99.90;;;;;;5004362;28;20088;-43
2022/04/23 04:27:39;;;;;;;15.93;10.65;;;9.70;99.90;;;;;;5009342;28;20042;-43
2022/04/23 04:30:09;;;;;;;14.50;10.52;;;9.70;99.90;;;;;;5010670;28;20124;-43
2022/04/23 04:32:36;;;;;;;18.98;11.95;;;9.70;99.90;;;;;;5010102;28;20050;-43
2022/04/23 04:35:03;;;;;;;14.48;11.25;;;9.70;99.90;;;;;;5010447;28;20057;-43
2022/04/23 04:37:29;;;;;;;13.77;10.95;;;9.70;99.90;;;;;;5012059;28;20140;-43
2022/04/23 04:39:56;;;;;;;16.42;11.55;;;9.60;99.90;;;;;;5011978;28;20052;-43
2022/04/23 04:42:23;;;;;;;14.05;10.18;;;9.60;99.90;;;;;;5010018;28;20470;-43
2022/04/23 04:44:50;;;;;;;15.93;11.10;;;9.60;99.90;;;;;;5004122;28;20409;-44
2022/04/23 04:47:18;;;;;;;15.98;10.52;;;9.60;99.90;;;;;;5008600;28;20054;-44
2022/04/23 04:49:45;;;;;;;18.63;10.85;;;9.60;99.90;;;;;;5000196;28;20050;-43
2022/04/23 04:52:11;;;;;;;16.20;11.60;;;9.60;99.90;;;;;;5016323;28;20041;-44
2022/04/23 04:54:38;;;;;;;14.63;10.55;;;9.60;99.90;;;;;;5012505;28;20054;-43
2022/04/23 04:57:05;;;;;;;15.57;11.23;;;9.60;99.90;;;;;;5006199;28;20046;-43
2022/04/23 04:59:32;;;;;;;17.50;11.82;;;9.60;99.90;;;;;;5024991;28;20050;-43
2022/04/23 05:01:59;;;;;;;16.48;11.52;;;9.50;99.90;;;;;;5009841;28;20038;-44
2022/04/23 05:04:27;;;;;;;17.20;11.50;;;9.60;99.90;;;;;;5011683;28;20056;-43
2022/04/23 05:06:54;;;;;;;12.93;10.57;;;9.60;99.90;;;;;;5011183;28;20048;-44
2022/04/23 05:09:21;;;;;;;17.10;11.60;;;9.60;99.90;;;;;;5002571;28;20046;-44
2022/04/23 05:11:47;;;;;;;15.90;11.32;;;9.50;99.90;;;;;;5006790;28;20398;-44
2022/04/23 05:14:16;;;;;;;14.82;10.90;;;9.60;99.90;;;;;;5003022;28;20049;-43
2022/04/23 05:16:43;;;;;;;15.20;11.35;;;9.60;99.90;;;;;;5011402;28;20490;-43
2022/04/23 05:19:10;;;;;;;15.13;10.93;;;9.60;99.90;;;;;;5014242;28;20054;-44
2022/04/23 05:21:38;;;;;;;14.70;11.55;;;9.60;99.90;;;;;;5012554;28;20058;-44
2022/04/23 05:24:06;;;;;;;15.05;11.18;;;9.50;99.90;;;;;;5004435;28;20393;-44
2022/04/23 05:26:34;;;;;;;16.33;11.10;;;9.60;99.90;;;;;;5011645;28;20042;-44
2022/04/23 05:29:00;;;;;;;14.50;10.32;;;9.60;99.90;;;;;;5012649;28;20476;-44
2022/04/23 05:31:27;;;;;;;13.75;11.20;;;9.70;99.90;;;;;;5004118;28;20046;-45
2022/04/23 05:33:54;;;;;;;13.60;11.10;;;9.70;99.90;;;;;;5012424;28;20128;-44
2022/04/23 05:36:21;;;;;;;16.10;11.27;;;9.70;99.90;;;;;;5008394;28;20046;-43
2022/04/23 05:38:49;;;;;;;17.17;11.23;;;9.80;99.90;;;;;;5011239;28;20050;-44
2022/04/23 05:41:16;;;;;;;12.77;10.65;;;9.80;99.90;;;;;;5010802;28;20045;-44
2022/04/23 05:43:43;;;;;;;18.80;10.93;;;9.80;99.90;;;;;;5016580;28;20088;-44
2022/04/23 05:46:09;;;;;;;14.88;11.02;;;9.90;99.90;;;;;;5013193;28;20555;-44
2022/04/23 05:48:36;;;;;;;14.23;11.30;;;9.90;99.90;;;;;;5012720;28;20394;-44
2022/04/23 05:51:03;;;;;;;14.65;11.18;;;10.00;99.90;;;;;;5012242;28;20049;-44
2022/04/23 05:53:30;;;;;;;16.25;11.63;;;10.00;99.90;;;;;;5015383;28;20050;-44
2022/04/23 05:55:58;;;;;;;15.00;11.23;;;10.00;99.80;;;;;;5010971;28;20058;-44
2022/04/23 05:58:25;;;;;;;13.52;10.77;;;10.20;99.70;;;;;;5006133;28;20065;-44
2022/04/23 06:00:52;;;;;;;15.55;11.57;;;10.20;99.50;;;;;;4999638;28;20059;-44
2022/04/23 06:03:18;;;;;;;14.00;11.50;;;10.30;99.30;;;;;;5006307;28;20429;-44
2022/04/23 06:05:45;;;;;;;13.63;11.27;;;10.40;99.20;;;;;;5009215;28;20080;-45
2022/04/23 06:08:12;;;;;;;15.80;11.70;;;10.40;99.00;;;;;;5010782;28;20042;-45
2022/04/23 06:10:38;;;;;;;15.45;11.80;;;10.50;98.90;;;;;;5007236;28;20356;-46
2022/04/23 06:13:08;;;;;;;17.25;12.45;;;10.60;98.70;;;;;;5000201;28;20064;-44
2022/04/23 06:15:35;;;;;;;16.13;11.82;;;10.60;98.50;;;;;;5007250;28;20081;-44
2022/04/23 06:18:02;;;;;;;17.23;11.43;;;10.70;98.30;;;;;;5006909;28;20377;-44
2022/04/23 06:20:28;;;;;;;15.15;11.70;;;10.80;98.00;;;;;;5010977;28;20058;-43
2022/04/23 06:22:55;;;;;;;15.00;11.73;;;10.80;97.90;;;;;;5007921;28;20449;-44
2022/04/23 06:25:22;;;;;;;15.02;12.20;;;10.90;97.80;;;;;;5009361;28;20061;-44
2022/04/23 06:27:50;;;;;;;12.98;11.30;;;11.00;97.50;;;;;;5002198;28;20046;-44
2022/04/23 06:30:18;;;;;;;14.75;11.00;;;11.00;97.30;;;;;;5003762;28;20474;-44
2022/04/23 06:32:45;;;;;;;14.93;11.10;;;11.10;97.10;;;;;;4996331;28;20136;-44
2022/04/23 06:35:11;;;;;;;16.73;11.13;;;11.20;97.00;;;;;;5000970;28;20054;-43
2022/04/23 06:37:40;;;;;;;14.40;11.70;;;11.30;96.80;;;;;;5004770;28;20058;-43
2022/04/23 06:40:08;;;;;;;14.48;11.45;;;11.40;96.60;;;;;;5006603;28;20050;-43
2022/04/23 06:42:35;;;;;;;20.23;11.88;;;11.50;96.30;;;;;;5013883;28;20053;-44
2022/04/23 06:45:01;;;;;;;14.95;11.60;;;11.60;96.10;;;;;;5008978;28;20042;-43
2022/04/23 06:47:29;;;;;;;15.00;11.45;;;11.60;96.00;;;;;;5002374;28;20134;-44
2022/04/23 06:49:58;;;;;;;13.63;11.18;;;11.70;95.70;;;;;;5007482;28;20401;-44
2022/04/23 06:52:25;;;;;;;14.55;11.77;;;11.90;95.50;;;;;;5004745;28;20042;-43
2022/04/23 06:54:54;;;;;;;14.48;11.52;;;12.00;95.30;;;;;;5009321;28;20562;-43
2022/04/23 06:57:22;;;;;;;17.13;11.18;;;12.00;94.90;;;;;;5009397;28;20034;-43
2022/04/23 06:59:49;;;;;;;14.93;11.63;;;12.10;94.80;;;;;;5003948;28;20108;-43
2022/04/23 07:02:16;;;;;;;14.00;11.82;;;12.10;94.50;;;;;;5005685;28;20039;-43
2022/04/23 07:04:44;;;;;;;14.43;11.68;;;12.20;94.50;;;;;;5007048;28;20137;-43
2022/04/23 07:07:11;;;;;;;20.60;11.77;;;12.30;94.40;;;;;;5003717;28;20470;-43
2022/04/23 07:09:37;;;;;;;17.40;11.60;;;12.50;94.00;;;;;;5009846;28;20058;-43
2022/04/23 07:12:05;;;;;;;14.52;11.10;;;12.60;93.50;;;;;;5008685;28;20048;-43
2022/04/23 07:14:32;;;;;;;13.93;12.40;;;12.60;93.20;;;;;;5016123;28;20054;-43
2022/04/23 07:16:59;;;;;;;15.07;11.43;;;12.70;93.20;;;;;;5005231;28;20057;-44
2022/04/23 07:19:25;;;;;;;17.23;12.45;;;12.80;92.90;;;;;;5006934;28;20049;-44
2022/04/23 07:21:53;;;;;;;16.23;12.50;;;12.80;92.70;;;;;;5001034;28;20049;-44
2022/04/23 07:24:20;;;;;;;20.40;12.18;;;13.00;92.50;;;;;;5007573;28;20051;-43
2022/04/23 07:26:47;;;;;;;14.80;11.27;;;13.00;92.30;;;;;;5006154;28;20124;-44
2022/04/23 07:29:14;;;;;;;18.17;12.55;;;13.20;91.90;;;;;;5009765;28;20382;-44
2022/04/23 07:31:40;;;;;;;18.85;12.43;;;13.20;91.50;;;;;;5002825;28;20052;-44
2022/04/23 07:39:40;;;;;;;17.67;13.18;;;13.60;90.90;;;;;;5005942;28;20050;-44
2022/04/23 07:42:07;;;;;;;13.70;11.43;;;13.70;90.60;;;;;;5007367;28;20049;-43
2022/04/23 07:44:34;;;;;;;15.40;11.88;;;13.90;90.40;;;;;;5009494;28;20136;-43
2022/04/23 07:47:00;;;;;;;14.05;11.27;;;14.00;88.70;;;;;;5009468;28;20037;-44
2022/04/23 07:49:30;;;;;;;19.83;12.07;;;14.00;88.90;;;;;;5009455;28;20137;-44
2022/04/23 07:51:58;;;;;;;17.05;10.68;;;14.20;87.50;;;;;;5007860;28;20407;-43
2022/04/23 07:54:25;;;;;;;17.02;11.57;;;14.30;87.20;;;;;;5011078;28;20049;-43
2022/04/23 07:56:51;;;;;;;16.50;11.27;;;14.40;86.50;;;;;;5002870;28;20042;-43
2022/04/23 07:59:18;;;;;;;16.15;11.10;;;14.40;84.50;;;;;;5011263;28;20500;-44
2022/04/23 08:01:45;;;;;;;13.48;9.90;;;14.50;83.50;;;;;;5003618;28;20125;-43
2022/04/23 08:04:12;;;;;;;13.23;10.07;;;14.60;82.40;;;;;;5001484;28;20046;-43
2022/04/23 08:06:38;;;;;;;16.52;9.13;;;14.70;82.10;;;;;;5008147;28;20038;-44
2022/04/23 08:09:06;;;;;;;12.13;9.55;;;14.80;82.50;;;;;;5007234;28;20045;-44
2022/04/23 08:11:33;;;;;;;16.77;9.23;;;15.00;80.90;;;;;;5008314;28;20141;-43
2022/04/23 08:14:03;;;;;;;15.98;9.20;;;15.10;80.80;;;;;;5006262;28;20135;-44
2022/04/23 08:16:30;;;;;;;30.17;10.45;;;15.20;77.90;;;;;;5008903;28;20049;-44
2022/04/23 08:18:57;;;;;;;20.00;9.43;;;15.20;76.90;;;;;;5011528;28;20038;-43
2022/04/23 08:21:24;;;;;;;21.83;8.95;;;15.30;76.10;;;;;;5007233;28;20132;-43
2022/04/23 08:23:50;;;;;;;18.98;9.18;;;15.30;75.30;;;;;;5013017;28;20390;-44
2022/04/23 08:26:18;;;;;;;12.15;9.02;;;15.30;74.60;;;;;;5003164;28;20056;-44
2022/04/23 08:31:30;;;;;;;11.48;8.93;;;15.60;74.80;;;;;;5013513;28;20053;-44
2022/04/23 08:33:59;;;;;;;12.02;9.20;;;15.70;74.20;;;;;;5006739;28;20121;-44
2022/04/23 08:36:27;;;;;;;12.82;8.90;;;15.70;73.60;;;;;;5010738;28;20096;-45
2022/04/23 08:38:56;;;;;;;19.25;9.20;;;15.80;73.50;;;;;;5004668;28;20481;-43
2022/04/23 08:41:28;;;;;;;12.65;9.13;;;16.00;72.70;;;;;;5011432;28;20056;-44
2022/04/23 08:43:57;;;;;;;12.98;9.27;;;16.00;71.50;;;;;;5004967;28;20042;-45
2022/04/23 08:46:24;;;;;;;18.08;9.55;;;16.10;71.40;;;;;;5010132;28;20045;-45
2022/04/23 08:48:51;;;;;;;15.32;9.18;;;16.20;71.20;;;;;;5005707;28;20042;-44
2022/04/23 08:51:20;;;;;;;15.05;10.05;;;16.30;70.60;;;;;;5011012;28;20540;-44
2022/04/23 08:53:47;;;;;;;17.13;9.73;;;16.20;69.10;;;;;;5011142;28;20046;-45
2022/04/23 08:56:14;;;;;;;19.77;11.15;;;16.20;68.70;;;;;;5015012;28;20425;-44
2022/04/23 08:58:45;;;;;;;16.55;9.48;;;16.20;68.70;;;;;;5012569;28;20038;-43
2022/04/23 09:01:12;;;;;;;16.42;10.20;;;16.40;68.70;;;;;;5008140;28;20049;-44
2022/04/23 09:03:39;;;;;;;15.77;9.60;;;16.50;69.00;;;;;;5005966;28;20479;-43
2022/04/23 09:06:05;;;;;;;15.95;9.63;;;16.60;67.90;;;;;;5004819;28;20041;-45
2022/04/23 09:08:32;;;;;;;14.00;10.05;;;16.60;67.10;;;;;;5009602;28;20049;-43
2022/04/23 09:10:59;;;;;;;15.05;9.80;;;16.60;66.90;;;;;;5009858;28;20053;-43
2022/04/23 09:13:26;;;;;;;14.10;9.88;;;16.60;66.30;;;;;;5011801;28;20569;-43
2022/04/23 09:24:20;;;;;;;12.65;9.80;;;16.70;65.60;;;;;;5007466;28;20042;-44
2022/04/23 09:27:02;;;;;;;11.65;10.15;;;16.80;65.50;;;;;;5008396;28;20116;-43
2022/04/23 09:29:30;;;;;;;16.48;10.15;;;16.90;65.50;;;;;;5011084;28;20352;-44
2022/04/23 09:32:10;;;;;;;16.63;9.88;;;17.10;64.90;;;;;;5004645;28;20054;-43
2022/04/23 09:34:37;;;;;;;14.13;9.00;;;17.20;62.90;;;;;;5009796;28;20083;-44
2022/04/23 09:37:05;;;;;;;16.83;9.88;;;17.30;63.90;;;;;;5013223;28;20057;-43
2022/04/23 09:39:31;;;;;;;14.23;9.60;;;17.40;63.70;;;;;;5020911;28;20078;-44
2022/04/23 09:42:14;;;;;;;19.40;10.00;;;17.40;63.30;;;;;;5012103;28;20042;-44
2022/04/23 09:44:41;;;;;;;13.40;10.00;;;17.50;62.90;;;;;;5011184;28;20042;-44
2022/04/23 09:47:09;;;;;;;18.83;10.02;;;17.60;63.20;;;;;;5009024;28;20134;-44
2022/04/23 09:49:38;;;;;;;12.57;9.70;;;17.60;62.10;;;;;;5010765;28;20042;-44
2022/04/23 09:52:05;;;;;;;13.23;9.60;;;17.60;62.30;;;;;;5027393;28;20104;-45
2022/04/23 09:54:32;;;;;;;18.10;8.95;;;17.60;62.10;;;;;;5006423;28;20057;-44
2022/04/23 09:56:59;;;;;;;18.50;10.35;;;17.70;62.40;;;;;;5014465;28;20247;-44
2022/04/23 09:59:26;;;;;;;11.73;9.73;;;17.90;62.20;;;;;;5005809;28;20132;-44
2022/04/23 10:01:53;;;;;;;15.25;10.30;;;17.90;61.50;;;;;;5013322;28;20050;-44
2022/04/23 10:04:22;;;;;;;15.85;10.13;;;17.90;61.80;;;;;;5008892;28;20052;-44
2022/04/23 10:06:49;;;;;;;18.98;9.27;;;18.00;61.30;;;;;;5011866;28;20048;-44
2022/04/23 10:09:17;;;;;;;13.10;9.68;;;18.10;60.90;;;;;;5008696;28;20034;-44
2022/04/23 10:11:44;;;;;;;14.27;9.65;;;18.10;60.50;;;;;;5006952;28;20049;-44
2022/04/23 10:14:12;;;;;;;11.90;9.73;;;18.10;60.50;;;;;;5008809;28;20042;-44
2022/04/23 10:16:38;;;;;;;11.20;10.10;;;18.10;60.80;;;;;;5003380;28;20073;-44
2022/04/23 10:19:05;;;;;;;14.68;10.43;;;18.20;60.50;;;;;;5007394;28;20496;-45
2022/04/23 10:21:39;;;;;;;13.27;9.95;;;18.20;60.00;;;;;;5017016;28;20125;-44
2022/04/23 10:24:08;;;;;;;15.05;9.98;;;18.10;60.10;;;;;;5012824;28;20694;-43
2022/04/23 10:26:46;;;;;;;11.20;9.27;;;18.40;60.30;;;;;;5008309;28;20046;-44
2022/04/23 10:29:15;;;;;;;13.57;9.60;;;18.50;59.80;;;;;;5007092;28;20069;-42
2022/04/23 10:31:42;;;;;;;11.32;9.77;;;18.60;59.10;;;;;;5007866;28;20363;-44
2022/04/23 10:34:40;;;;;;;14.10;9.38;;;18.70;58.80;;;;;;5012386;28;20458;-45
2022/04/23 10:37:18;;;;;;;15.70;9.23;;;18.90;57.10;;;;;;4999642;28;20530;-44
2022/04/23 10:39:45;;;;;;;11.48;9.05;;;18.80;56.80;;;;;;5001783;28;20414;-44
2022/04/23 10:42:15;;;;;;;13.43;9.40;;;18.90;58.20;;;;;;5011164;28;20042;-44
2022/04/23 10:44:43;;;;;;;13.73;9.73;;;19.00;57.50;;;;;;5007430;28;21395;-44
2022/04/23 10:47:14;;;;;;;10.68;9.18;;;19.00;56.90;;;;;;5007362;28;20062;-44
2022/04/23 10:49:41;;;;;;;13.40;9.52;;;19.00;56.70;;;;;;5007005;28;20048;-44
2022/04/23 10:52:08;;;;;;;15.75;9.60;;;19.00;56.90;;;;;;5004192;28;20050;-45
2022/04/23 10:54:57;;;;;;;11.13;9.15;;;19.00;56.40;;;;;;5001463;28;20046;-44
2022/04/23 10:57:25;;;;;;;12.07;9.55;;;19.20;55.10;;;;;;5004411;28;20049;-44
2022/04/23 10:59:52;;;;;;;13.40;9.38;;;19.20;56.40;;;;;;5005389;28;20074;-44
2022/04/23 11:02:34;;;;;;;11.25;8.82;;;19.40;56.00;;;;;;5004476;28;20488;-44
2022/04/23 11:13:22;;;;;;;13.07;8.55;;;19.70;54.30;;;;;;5004305;28;20049;-44
2022/04/23 11:16:10;;;;;;;13.37;8.63;;;19.70;51.80;;;;;;5012057;28;20117;-44
2022/04/23 11:18:37;;;;;;;10.95;8.27;;;19.60;53.40;;;;;;5009406;28;20117;-44
2022/04/23 11:21:11;;;;;;;11.40;8.48;;;19.70;53.90;;;;;;5003771;28;20125;-44
2022/04/23 11:23:39;;;;;;;13.27;8.10;;;19.70;53.90;;;;;;5008319;28;20050;-44
2022/04/23 11:26:07;;;;;;;8.68;7.78;;;19.70;54.00;;;;;;5011565;28;20041;-44
2022/04/23 11:28:34;;;;;;;16.40;8.57;;;19.80;53.30;;;;;;5008348;28;20069;-44
2022/04/23 11:31:10;;;;;;;17.40;8.68;;;19.80;52.50;;;;;;5008890;28;20046;-44
2022/04/23 11:33:37;;;;;;;11.23;7.95;;;19.90;51.60;;;;;;5010471;28;20386;-44
2022/04/23 11:36:04;;;;;;;11.32;8.57;;;19.80;51.90;;;;;;5009684;28;20096;-44
2022/04/23 11:38:31;;;;;;;16.35;9.20;;;19.80;52.00;;;;;;5009278;28;20049;-44
2022/04/23 11:40:57;;;;;;;11.30;7.85;;;19.90;51.80;;;;;;5010610;28;20486;-44
2022/04/23 11:43:37;;;;;;;10.93;7.97;;;19.90;52.00;;;;;;5005019;28;20049;-44
2022/04/23 11:46:06;;;;;;;11.07;8.27;;;20.00;51.10;;;;;;5005029;28;20038;-43
2022/04/23 11:48:43;;;;;;;11.73;8.25;;;20.10;51.90;;;;;;5008591;28;20046;-44
2022/04/23 11:51:12;;;;;;;9.07;7.78;;;20.20;50.10;;;;;;5004288;28;20042;-44
2022/04/23 11:53:56;;;;;;;8.32;7.32;;;20.10;51.80;;;;;;5003545;28;20085;-45
2022/04/23 11:56:33;;;;;;;11.68;7.85;;;20.20;50.20;;;;;;5010390;28;20538;-44
2022/04/23 11:59:03;;;;;;;11.70;6.88;;;20.30;50.20;;;;;;4999087;28;20060;-44
2022/04/23 12:01:30;;;;;;;8.57;6.90;;;20.30;50.50;;;;;;5001915;28;20050;-44
2022/04/23 12:03:57;;;;;;;10.73;6.68;;;20.40;49.50;;;;;;5004110;28;20046;-44
2022/04/23 12:06:24;;;;;;;8.35;6.57;;;20.50;48.70;;;;;;5002135;28;20510;-44
2022/04/23 12:08:50;;;;;;;10.77;7.22;;;20.60;48.40;;;;;;5005541;28;20045;-44
2022/04/23 12:11:21;;;;;;;12.60;7.65;;;20.60;48.80;;;;;;5011431;28;20041;-44
2022/04/23 12:13:48;;;;;;;10.80;7.55;;;20.70;48.00;;;;;;5005628;28;20034;-45
2022/04/23 12:16:36;;;;;;;12.20;7.53;;;20.60;48.00;;;;;;5011496;28;20046;-44
2022/04/23 12:19:04;;;;;;;8.70;7.45;;;20.60;48.20;;;;;;5004632;28;20176;-45
2022/04/23 12:21:31;;;;;;;10.68;7.30;;;20.70;48.30;;;;;;5010939;28;20095;-44
2022/04/23 12:23:58;;;;;;;11.95;7.70;;;20.70;47.70;;;;;;5007786;28;20057;-45
2022/04/23 12:26:24;;;;;;;10.45;7.38;;;20.70;48.70;;;;;;5003719;28;20046;-44
2022/04/23 12:43:23;;;;;;;14.70;5.80;;;20.90;47.70;;;;;;5009935;28;20042;-45
2022/04/23 12:45:50;;;;;;;8.57;6.20;;;21.10;45.20;;;;;;5015471;28;20100;-45
2022/04/23 12:48:18;;;;;;;12.00;5.85;;;21.00;45.60;;;;;;5010639;28;20060;-45
2022/04/23 12:50:46;;;;;;;8.57;5.88;;;21.00;45.30;;;;;;5013396;28;20081;-44
2022/04/23 12:53:13;;;;;;;6.38;5.38;;;20.90;44.90;;;;;;5007387;28;20046;-44
2022/04/23 12:55:50;;;;;;;12.63;5.70;;;21.00;45.10;;;;;;5010437;28;20466;-44
2022/04/23 12:58:17;;;;;;;6.13;5.53;;;21.10;45.70;;;;;;5014098;28;20042;-42
2022/04/23 13:00:45;;;;;;;7.38;5.68;;;21.10;44.70;;;;;;5007905;28;20037;-45
2022/04/23 13:03:21;;;;;;;12.82;5.93;;;21.20;44.20;;;;;;5012406;28;20111;-45
2022/04/23 13:05:49;;;;;;;9.73;5.95;;;21.20;44.30;;;;;;5009226;28;22138;-45
2022/04/23 13:11:24;;;;;;;12.32;5.45;;;21.20;44.50;;;;;;5007025;28;20466;-43
2022/04/23 13:13:46;;;;;;;6.78;5.40;;;21.50;43.80;;;;;;5006934;28;20096;-44
2022/04/23 13:16:13;;;;;;;7.78;5.28;;;21.40;42.50;;;;;;5008782;28;20037;-44
2022/04/23 13:18:40;;;;;;;8.48;5.47;;;21.30;42.00;;;;;;5013701;28;20054;-43
2022/04/23 13:21:08;;;;;;;8.43;5.90;;;21.30;42.90;;;;;;5011167;28;20145;-45